sensor_id;sensor_type;location;lat;lon;timestamp;temperature;humidity
7518;DHT22;3800;48.922;9.444;2023-05-07T00:00:33;13.60;99.90
7518;DHT22;3800;48.922;9.444;2023-05-07T00:03:02;13.50;99.90
7518;DHT22;3800;48.922;9.444;2023-05-07T00:05:30;13.50;99.90
7518;DHT22;3800;48.922;9.444;2023-05-07T00:07:58;13.60;99.90
7518;DHT22;3800;48.922;9.444;2023-05-07T00:10:27;13.50;99.90
7518;DHT22;3800;48.922;9.444;2023-05-07T00:12:56;13.50;99.90
7518;DHT22;3800;48.922;9.444;2023-05-07T00:15:24;13.50;99.90
7518;DHT22;3800;48.922;9.444;2023-05-07T00:17:53;13.50;99.90
7518;DHT22;3800;48.922;9.444;2023-05-07T00:20:22;13.40;99.90
7518;DHT22;3800;48.922;9.444;2023-05-07T00:22:50;13.30;99.90
7518;DHT22;3800;48.922;9.444;2023-05-07T00:25:19;13.30;99.90
7518;DHT22;3800;48.922;9.444;2023-05-07T00:27:47;13.30;99.90
7518;DHT22;3800;48.922;9.444;2023-05-07T00:30:15;13.20;99.90
7518;DHT22;3800;48.922;9.444;2023-05-07T00:32:44;13.20;99.90
7518;DHT22;3800;48.922;9.444;2023-05-07T00:35:13;13.20;99.90
7518;DHT22;3800;48.922;9.444;2023-05-07T00:37:41;13.10;99.90
7518;DHT22;3800;48.922;9.444;2023-05-07T00:40:09;13.10;99.90
7518;DHT22;3800;48.922;9.444;2023-05-07T00:42:38;13.00;99.90
7518;DHT22;3800;48.922;9.444;2023-05-07T00:45:07;13.00;99.90
7518;DHT22;3800;48.922;9.444;2023-05-07T00:47:35;13.00;99.90
7518;DHT22;3800;48.922;9.444;2023-05-07T00:50:04;12.90;99.90
7518;DHT22;3800;48.922;9.444;2023-05-07T00:52:34;12.90;99.90
7518;DHT22;3800;48.922;9.444;2023-05-07T00:55:04;12.90;99.90
7518;DHT22;3800;48.922;9.444;2023-05-07T00:57:34;12.80;99.90
7518;DHT22;3800;48.922;9.444;2023-05-07T01:00:01;12.80;99.90
7518;DHT22;3800;48.922;9.444;2023-05-07T01:02:29;12.90;99.90
7518;DHT22;3800;48.922;9.444;2023-05-07T01:04:57;12.80;99.90
7518;DHT22;3800;48.922;9.444;2023-05-07T01:07:25;12.80;99.90
7518;DHT22;3800;48.922;9.444;2023-05-07T01:09:54;12.80;99.90
7518;DHT22;3800;48.922;9.444;2023-05-07T01:12:23;12.80;99.90
7518;DHT22;3800;48.922;9.444;2023-05-07T01:14:51;12.80;99.90
7518;DHT22;3800;48.922;9.444;2023-05-07T01:17:19;12.70;99.90
7518;DHT22;3800;48.922;9.444;2023-05-07T01:19:48;12.80;99.90
7518;DHT22;3800;48.922;9.444;2023-05-07T01:22:22;12.70;99.90
7518;DHT22;3800;48.922;9.444;2023-05-07T01:24:47;12.80;99.90
7518;DHT22;3800;48.922;9.444;2023-05-07T01:27:15;12.80;99.90
7518;DHT22;3800;48.922;9.444;2023-05-07T01:29:43;12.80;99.90
7518;DHT22;3800;48.922;9.444;2023-05-07T01:32:11;12.80;99.90
7518;DHT22;3800;48.922;9.444;2023-05-07T01:34:40;12.80;99.90
7518;DHT22;3800;48.922;9.444;2023-05-07T01:37:08;12.70;99.90
7518;DHT22;3800;48.922;9.444;2023-05-07T01:39:37;12.70;99.90
7518;DHT22;3800;48.922;9.444;2023-05-07T01:42:05;12.60;99.90
7518;DHT22;3800;48.922;9.444;2023-05-07T01:44:34;12.60;99.90
7518;DHT22;3800;48.922;9.444;2023-05-07T01:47:02;12.60;99.90
7518;DHT22;3800;48.922;9.444;2023-05-07T01:49:30;12.50;99.90
7518;DHT22;3800;48.922;9.444;2023-05-07T01:51:58;12.50;99.90
7518;DHT22;3800;48.922;9.444;2023-05-07T01:54:27;12.50;99.90
7518;DHT22;3800;48.922;9.444;2023-05-07T01:56:55;12.40;99.90
7518;DHT22;3800;48.922;9.444;2023-05-07T01:59:25;12.40;99.90
7518;DHT22;3800;48.922;9.444;2023-05-07T02:01:53;12.40;99.90
7518;DHT22;3800;48.922;9.444;2023-05-07T02:04:21;12.40;99.90
7518;DHT22;3800;48.922;9.444;2023-05-07T02:06:50;12.40;99.90
7518;DHT22;3800;48.922;9.444;2023-05-07T02:09:19;12.30;99.90
7518;DHT22;3800;48.922;9.444;2023-05-07T02:11:48;12.30;99.90
7518;DHT22;3800;48.922;9.444;2023-05-07T02:14:16;12.30;99.90
7518;DHT22;3800;48.922;9.444;2023-05-07T02:16:45;12.30;99.90
7518;DHT22;3800;48.922;9.444;2023-05-07T02:19:13;12.30;99.90
7518;DHT22;3800;48.922;9.444;2023-05-07T02:21:41;12.30;99.90
7518;DHT22;3800;48.922;9.444;2023-05-07T02:24:10;12.30;99.90
7518;DHT22;3800;48.922;9.444;2023-05-07T02:26:39;12.30;99.90
7518;DHT22;3800;48.922;9.444;2023-05-07T02:29:07;12.30;99.90
7518;DHT22;3800;48.922;9.444;2023-05-07T02:31:35;12.20;99.90
7518;DHT22;3800;48.922;9.444;2023-05-07T02:34:03;12.30;99.90
7518;DHT22;3800;48.922;9.444;2023-05-07T02:36:32;12.20;99.90
7518;DHT22;3800;48.922;9.444;2023-05-07T02:39:00;12.20;99.90
7518;DHT22;3800;48.922;9.444;2023-05-07T02:41:28;12.20;99.90
7518;DHT22;3800;48.922;9.444;2023-05-07T02:43:57;12.20;99.90
7518;DHT22;3800;48.922;9.444;2023-05-07T02:46:26;12.00;99.90
7518;DHT22;3800;48.922;9.444;2023-05-07T02:48:55;12.00;99.90
7518;DHT22;3800;48.922;9.444;2023-05-07T02:51:23;12.00;99.90
7518;DHT22;3800;48.922;9.444;2023-05-07T02:53:52;11.90;99.90
7518;DHT22;3800;48.922;9.444;2023-05-07T02:56:20;11.90;99.90
7518;DHT22;3800;48.922;9.444;2023-05-07T02:58:49;11.90;99.90
7518;DHT22;3800;48.922;9.444;2023-05-07T03:01:17;11.90;99.90
7518;DHT22;3800;48.922;9.444;2023-05-07T03:03:45;11.90;99.90
7518;DHT22;3800;48.922;9.444;2023-05-07T03:06:13;11.90;99.90
7518;DHT22;3800;48.922;9.444;2023-05-07T03:08:42;11.80;99.90
7518;DHT22;3800;48.922;9.444;2023-05-07T03:11:11;11.70;99.90
7518;DHT22;3800;48.922;9.444;2023-05-07T03:13:41;11.70;99.90
7518;DHT22;3800;48.922;9.444;2023-05-07T03:16:09;11.60;99.90
7518;DHT22;3800;48.922;9.444;2023-05-07T03:18:37;11.60;99.90
7518;DHT22;3800;48.922;9.444;2023-05-07T03:21:06;11.50;99.90
7518;DHT22;3800;48.922;9.444;2023-05-07T03:23:34;11.50;99.90
7518;DHT22;3800;48.922;9.444;2023-05-07T03:26:03;11.30;99.90
7518;DHT22;3800;48.922;9.444;2023-05-07T03:28:32;11.30;99.90
7518;DHT22;3800;48.922;9.444;2023-05-07T03:31:00;11.30;99.90
7518;DHT22;3800;48.922;9.444;2023-05-07T03:33:28;11.30;99.90
7518;DHT22;3800;48.922;9.444;2023-05-07T03:35:57;11.30;99.90
7518;DHT22;3800;48.922;9.444;2023-05-07T03:38:26;11.20;99.90
7518;DHT22;3800;48.922;9.444;2023-05-07T03:40:54;11.30;99.90
7518;DHT22;3800;48.922;9.444;2023-05-07T03:43:23;11.30;99.90
7518;DHT22;3800;48.922;9.444;2023-05-07T03:45:51;11.30;99.90
7518;DHT22;3800;48.922;9.444;2023-05-07T03:48:20;11.30;99.90
7518;DHT22;3800;48.922;9.444;2023-05-07T03:50:48;11.20;99.90
7518;DHT22;3800;48.922;9.444;2023-05-07T03:53:17;11.20;99.90
7518;DHT22;3800;48.922;9.444;2023-05-07T03:55:46;11.20;99.90
7518;DHT22;3800;48.922;9.444;2023-05-07T03:58:14;11.20;99.90
7518;DHT22;3800;48.922;9.444;2023-05-07T04:00:43;11.20;99.90
7518;DHT22;3800;48.922;9.444;2023-05-07T04:03:12;11.00;99.90
7518;DHT22;3800;48.922;9.444;2023-05-07T04:05:40;11.00;99.90
7518;DHT22;3800;48.922;9.444;2023-05-07T04:08:09;10.90;99.90
7518;DHT22;3800;48.922;9.444;2023-05-07T04:10:37;10.80;99.90
7518;DHT22;3800;48.922;9.444;2023-05-07T04:13:05;10.80;99.90
7518;DHT22;3800;48.922;9.444;2023-05-07T04:15:34;10.80;99.90
7518;DHT22;3800;48.922;9.444;2023-05-07T04:18:02;10.80;99.90
7518;DHT22;3800;48.922;9.444;2023-05-07T04:20:30;10.90;99.90
7518;DHT22;3800;48.922;9.444;2023-05-07T04:22:59;10.90;99.90
7518;DHT22;3800;48.922;9.444;2023-05-07T04:25:27;10.90;99.90
7518;DHT22;3800;48.922;9.444;2023-05-07T04:27:55;11.00;99.90
7518;DHT22;3800;48.922;9.444;2023-05-07T04:30:24;11.10;99.90
7518;DHT22;3800;48.922;9.444;2023-05-07T04:32:53;11.10;99.90
7518;DHT22;3800;48.922;9.444;2023-05-07T04:35:21;11.20;99.90
7518;DHT22;3800;48.922;9.444;2023-05-07T04:37:50;11.30;99.90
7518;DHT22;3800;48.922;9.444;2023-05-07T04:40:18;11.20;99.90
7518;DHT22;3800;48.922;9.444;2023-05-07T04:42:47;11.40;99.90
7518;DHT22;3800;48.922;9.444;2023-05-07T04:45:15;11.40;99.90
7518;DHT22;3800;48.922;9.444;2023-05-07T04:47:44;11.40;99.90
7518;DHT22;3800;48.922;9.444;2023-05-07T04:50:13;11.50;99.90
7518;DHT22;3800;48.922;9.444;2023-05-07T04:52:41;11.50;99.90
7518;DHT22;3800;48.922;9.444;2023-05-07T04:55:10;11.70;99.90
7518;DHT22;3800;48.922;9.444;2023-05-07T04:57:38;11.70;99.90
7518;DHT22;3800;48.922;9.444;2023-05-07T05:00:08;11.80;99.90
7518;DHT22;3800;48.922;9.444;2023-05-07T05:02:36;11.80;99.90
7518;DHT22;3800;48.922;9.444;2023-05-07T05:05:05;11.90;99.90
7518;DHT22;3800;48.922;9.444;2023-05-07T05:07:33;12.00;99.90
7518;DHT22;3800;48.922;9.444;2023-05-07T05:10:02;12.00;99.90
7518;DHT22;3800;48.922;9.444;2023-05-07T05:12:30;12.10;99.90
7518;DHT22;3800;48.922;9.444;2023-05-07T05:14:59;12.20;99.90
7518;DHT22;3800;48.922;9.444;2023-05-07T05:17:27;12.20;99.90
7518;DHT22;3800;48.922;9.444;2023-05-07T05:19:56;12.30;99.90
7518;DHT22;3800;48.922;9.444;2023-05-07T05:22:24;12.20;99.90
7518;DHT22;3800;48.922;9.444;2023-05-07T05:24:53;12.30;99.90
7518;DHT22;3800;48.922;9.444;2023-05-07T05:27:21;12.40;99.90
7518;DHT22;3800;48.922;9.444;2023-05-07T05:29:49;12.40;99.90
7518;DHT22;3800;48.922;9.444;2023-05-07T05:32:17;12.40;99.90
7518;DHT22;3800;48.922;9.444;2023-05-07T05:34:46;12.50;99.90
7518;DHT22;3800;48.922;9.444;2023-05-07T05:37:15;12.50;99.90
7518;DHT22;3800;48.922;9.444;2023-05-07T05:39:43;12.50;99.90
7518;DHT22;3800;48.922;9.444;2023-05-07T05:42:11;12.60;99.90
7518;DHT22;3800;48.922;9.444;2023-05-07T05:44:39;12.60;99.90
7518;DHT22;3800;48.922;9.444;2023-05-07T05:47:08;12.70;99.90
7518;DHT22;3800;48.922;9.444;2023-05-07T05:49:36;12.80;99.90
7518;DHT22;3800;48.922;9.444;2023-05-07T05:52:04;12.80;99.90
7518;DHT22;3800;48.922;9.444;2023-05-07T05:54:32;12.90;99.90
7518;DHT22;3800;48.922;9.444;2023-05-07T05:57:01;13.00;99.90
7518;DHT22;3800;48.922;9.444;2023-05-07T05:59:30;13.00;99.90
7518;DHT22;3800;48.922;9.444;2023-05-07T06:01:58;13.10;99.90
7518;DHT22;3800;48.922;9.444;2023-05-07T06:04:27;13.20;99.90
7518;DHT22;3800;48.922;9.444;2023-05-07T06:06:55;13.20;99.90
7518;DHT22;3800;48.922;9.444;2023-05-07T06:09:23;13.30;99.90
7518;DHT22;3800;48.922;9.444;2023-05-07T06:11:51;13.30;99.90
7518;DHT22;3800;48.922;9.444;2023-05-07T06:14:19;13.40;99.90
7518;DHT22;3800;48.922;9.444;2023-05-07T06:16:48;13.50;99.90
7518;DHT22;3800;48.922;9.444;2023-05-07T06:19:17;13.50;99.90
7518;DHT22;3800;48.922;9.444;2023-05-07T06:21:45;13.60;99.90
7518;DHT22;3800;48.922;9.444;2023-05-07T06:24:13;13.70;99.90
7518;DHT22;3800;48.922;9.444;2023-05-07T06:26:42;13.70;99.90
7518;DHT22;3800;48.922;9.444;2023-05-07T06:29:10;13.80;99.90
7518;DHT22;3800;48.922;9.444;2023-05-07T06:31:38;13.90;99.90
7518;DHT22;3800;48.922;9.444;2023-05-07T06:34:07;14.00;99.90
7518;DHT22;3800;48.922;9.444;2023-05-07T06:36:35;14.10;99.90
7518;DHT22;3800;48.922;9.444;2023-05-07T06:39:03;14.20;99.90
7518;DHT22;3800;48.922;9.444;2023-05-07T06:41:32;14.40;99.90
7518;DHT22;3800;48.922;9.444;2023-05-07T06:44:01;14.40;99.90
7518;DHT22;3800;48.922;9.444;2023-05-07T06:46:28;14.50;99.90
7518;DHT22;3800;48.922;9.444;2023-05-07T06:48:57;14.70;99.90
7518;DHT22;3800;48.922;9.444;2023-05-07T06:51:25;14.80;99.90
7518;DHT22;3800;48.922;9.444;2023-05-07T06:53:53;14.90;99.90
7518;DHT22;3800;48.922;9.444;2023-05-07T06:56:21;15.10;99.90
7518;DHT22;3800;48.922;9.444;2023-05-07T06:58:50;15.30;99.90
7518;DHT22;3800;48.922;9.444;2023-05-07T07:01:19;15.30;99.90
7518;DHT22;3800;48.922;9.444;2023-05-07T07:03:47;15.50;99.90
7518;DHT22;3800;48.922;9.444;2023-05-07T07:06:15;15.60;99.90
7518;DHT22;3800;48.922;9.444;2023-05-07T07:08:44;15.70;99.90
7518;DHT22;3800;48.922;9.444;2023-05-07T07:11:12;15.80;99.90
7518;DHT22;3800;48.922;9.444;2023-05-07T07:13:41;15.90;99.90
7518;DHT22;3800;48.922;9.444;2023-05-07T07:16:10;16.10;99.90
7518;DHT22;3800;48.922;9.444;2023-05-07T07:18:38;16.10;99.90
7518;DHT22;3800;48.922;9.444;2023-05-07T07:21:06;16.40;99.90
7518;DHT22;3800;48.922;9.444;2023-05-07T07:23:35;16.70;99.90
7518;DHT22;3800;48.922;9.444;2023-05-07T07:26:04;16.70;99.90
7518;DHT22;3800;48.922;9.444;2023-05-07T07:28:32;16.80;99.90
7518;DHT22;3800;48.922;9.444;2023-05-07T07:31:00;17.00;99.90
7518;DHT22;3800;48.922;9.444;2023-05-07T07:33:28;17.20;99.90
7518;DHT22;3800;48.922;9.444;2023-05-07T07:35:57;17.50;99.90
7518;DHT22;3800;48.922;9.444;2023-05-07T07:38:25;17.70;99.90
7518;DHT22;3800;48.922;9.444;2023-05-07T07:40:54;17.90;99.90
7518;DHT22;3800;48.922;9.444;2023-05-07T07:43:22;18.00;99.90
7518;DHT22;3800;48.922;9.444;2023-05-07T07:45:51;18.20;99.90
7518;DHT22;3800;48.922;9.444;2023-05-07T07:48:19;18.20;99.90
7518;DHT22;3800;48.922;9.444;2023-05-07T07:50:49;18.40;99.90
7518;DHT22;3800;48.922;9.444;2023-05-07T07:53:17;18.40;99.90
7518;DHT22;3800;48.922;9.444;2023-05-07T07:55:45;18.60;99.90
7518;DHT22;3800;48.922;9.444;2023-05-07T07:58:13;18.70;99.90
7518;DHT22;3800;48.922;9.444;2023-05-07T08:00:41;18.90;99.90
7518;DHT22;3800;48.922;9.444;2023-05-07T08:03:10;19.00;99.90
7518;DHT22;3800;48.922;9.444;2023-05-07T08:05:38;19.10;99.90
7518;DHT22;3800;48.922;9.444;2023-05-07T08:08:07;19.40;99.90
7518;DHT22;3800;48.922;9.444;2023-05-07T08:10:35;19.30;99.90
7518;DHT22;3800;48.922;9.444;2023-05-07T08:13:04;19.50;99.90
7518;DHT22;3800;48.922;9.444;2023-05-07T08:15:32;19.60;99.90
7518;DHT22;3800;48.922;9.444;2023-05-07T08:18:01;19.60;99.90
7518;DHT22;3800;48.922;9.444;2023-05-07T08:20:28;19.60;99.90
7518;DHT22;3800;48.922;9.444;2023-05-07T08:22:57;19.60;99.90
7518;DHT22;3800;48.922;9.444;2023-05-07T08:25:26;19.50;99.90
7518;DHT22;3800;48.922;9.444;2023-05-07T08:27:54;19.50;99.90
7518;DHT22;3800;48.922;9.444;2023-05-07T08:30:22;19.50;99.90
7518;DHT22;3800;48.922;9.444;2023-05-07T08:32:50;19.50;99.90
7518;DHT22;3800;48.922;9.444;2023-05-07T08:35:19;19.50;99.90
7518;DHT22;3800;48.922;9.444;2023-05-07T08:37:47;19.60;99.90
7518;DHT22;3800;48.922;9.444;2023-05-07T08:40:15;19.80;99.90
7518;DHT22;3800;48.922;9.444;2023-05-07T08:42:43;19.80;99.90
7518;DHT22;3800;48.922;9.444;2023-05-07T08:45:12;19.90;99.90
7518;DHT22;3800;48.922;9.444;2023-05-07T08:47:44;19.80;99.90
7518;DHT22;3800;48.922;9.444;2023-05-07T08:50:11;19.80;99.90
7518;DHT22;3800;48.922;9.444;2023-05-07T08:52:40;19.90;99.90
7518;DHT22;3800;48.922;9.444;2023-05-07T08:55:08;19.90;99.90
7518;DHT22;3800;48.922;9.444;2023-05-07T08:57:36;19.90;99.90
7518;DHT22;3800;48.922;9.444;2023-05-07T09:00:06;19.90;99.90
7518;DHT22;3800;48.922;9.444;2023-05-07T09:02:35;20.00;99.90
7518;DHT22;3800;48.922;9.444;2023-05-07T09:05:03;20.00;99.90
7518;DHT22;3800;48.922;9.444;2023-05-07T09:07:32;20.20;99.90
7518;DHT22;3800;48.922;9.444;2023-05-07T09:10:03;20.30;99.90
7518;DHT22;3800;48.922;9.444;2023-05-07T09:12:30;20.40;99.90
7518;DHT22;3800;48.922;9.444;2023-05-07T09:14:59;20.50;99.90
7518;DHT22;3800;48.922;9.444;2023-05-07T09:17:27;20.60;99.90
7518;DHT22;3800;48.922;9.444;2023-05-07T09:19:55;20.90;99.90
7518;DHT22;3800;48.922;9.444;2023-05-07T09:22:23;21.10;99.90
7518;DHT22;3800;48.922;9.444;2023-05-07T09:24:52;21.50;99.90
7518;DHT22;3800;48.922;9.444;2023-05-07T09:27:21;21.50;99.90
7518;DHT22;3800;48.922;9.444;2023-05-07T09:29:49;21.70;99.90
7518;DHT22;3800;48.922;9.444;2023-05-07T09:32:17;21.90;99.90
7518;DHT22;3800;48.922;9.444;2023-05-07T09:34:46;22.00;99.90
7518;DHT22;3800;48.922;9.444;2023-05-07T09:37:14;22.00;99.90
7518;DHT22;3800;48.922;9.444;2023-05-07T09:39:43;22.00;99.90
7518;DHT22;3800;48.922;9.444;2023-05-07T09:42:10;21.90;99.90
7518;DHT22;3800;48.922;9.444;2023-05-07T09:44:39;21.90;99.90
7518;DHT22;3800;48.922;9.444;2023-05-07T09:47:07;21.90;99.90
7518;DHT22;3800;48.922;9.444;2023-05-07T09:49:36;21.80;99.90
7518;DHT22;3800;48.922;9.444;2023-05-07T09:52:04;21.80;99.90
7518;DHT22;3800;48.922;9.444;2023-05-07T09:54:35;21.80;99.90
7518;DHT22;3800;48.922;9.444;2023-05-07T09:57:02;21.90;99.90
7518;DHT22;3800;48.922;9.444;2023-05-07T09:59:31;21.90;99.90
7518;DHT22;3800;48.922;9.444;2023-05-07T10:02:00;22.00;99.90
7518;DHT22;3800;48.922;9.444;2023-05-07T10:04:28;22.00;99.90
7518;DHT22;3800;48.922;9.444;2023-05-07T10:06:57;22.00;99.90
7518;DHT22;3800;48.922;9.444;2023-05-07T10:09:25;21.90;99.90
7518;DHT22;3800;48.922;9.444;2023-05-07T10:11:54;22.00;99.90
7518;DHT22;3800;48.922;9.444;2023-05-07T10:14:22;22.00;99.90
7518;DHT22;3800;48.922;9.444;2023-05-07T10:16:51;22.00;99.90
7518;DHT22;3800;48.922;9.444;2023-05-07T10:19:20;22.00;99.90
7518;DHT22;3800;48.922;9.444;2023-05-07T10:21:52;22.20;99.90
7518;DHT22;3800;48.922;9.444;2023-05-07T10:24:20;22.10;99.90
7518;DHT22;3800;48.922;9.444;2023-05-07T10:26:49;22.10;99.90
7518;DHT22;3800;48.922;9.444;2023-05-07T10:32:50;22.20;99.90
7518;DHT22;3800;48.922;9.444;2023-05-07T10:35:02;22.30;99.90
7518;DHT22;3800;48.922;9.444;2023-05-07T10:37:30;22.40;99.90
7518;DHT22;3800;48.922;9.444;2023-05-07T10:39:58;22.40;99.90
7518;DHT22;3800;48.922;9.444;2023-05-07T10:42:27;22.30;99.90
7518;DHT22;3800;48.922;9.444;2023-05-07T10:44:56;22.20;99.90
7518;DHT22;3800;48.922;9.444;2023-05-07T10:47:24;22.20;99.90
7518;DHT22;3800;48.922;9.444;2023-05-07T10:53:07;22.20;99.90
7518;DHT22;3800;48.922;9.444;2023-05-07T10:55:19;22.10;99.90
7518;DHT22;3800;48.922;9.444;2023-05-07T10:57:47;22.10;99.90
7518;DHT22;3800;48.922;9.444;2023-05-07T11:03:14;22.10;99.90
7518;DHT22;3800;48.922;9.444;2023-05-07T11:05:42;22.10;99.90
7518;DHT22;3800;48.922;9.444;2023-05-07T11:08:11;22.10;99.90
7518;DHT22;3800;48.922;9.444;2023-05-07T11:10:49;22.10;99.90
7518;DHT22;3800;48.922;9.444;2023-05-07T11:13:41;22.10;99.90
7518;DHT22;3800;48.922;9.444;2023-05-07T11:16:02;22.10;99.90
7518;DHT22;3800;48.922;9.444;2023-05-07T11:18:46;22.20;99.90
7518;DHT22;3800;48.922;9.444;2023-05-07T11:24:02;22.20;99.90
7518;DHT22;3800;48.922;9.444;2023-05-07T11:26:31;22.20;99.90
7518;DHT22;3800;48.922;9.444;2023-05-07T11:28:59;22.20;99.90
7518;DHT22;3800;48.922;9.444;2023-05-07T11:31:28;22.30;99.90
7518;DHT22;3800;48.922;9.444;2023-05-07T11:33:56;22.30;99.90
7518;DHT22;3800;48.922;9.444;2023-05-07T11:36:24;22.30;99.90
7518;DHT22;3800;48.922;9.444;2023-05-07T11:38:52;22.30;99.90
7518;DHT22;3800;48.922;9.444;2023-05-07T11:41:21;22.30;99.90
7518;DHT22;3800;48.922;9.444;2023-05-07T11:43:54;22.30;99.90
7518;DHT22;3800;48.922;9.444;2023-05-07T11:46:23;22.20;99.90
7518;DHT22;3800;48.922;9.444;2023-05-07T11:48:51;22.20;99.90
7518;DHT22;3800;48.922;9.444;2023-05-07T11:51:20;22.20;99.90
7518;DHT22;3800;48.922;9.444;2023-05-07T11:53:48;22.20;99.90
7518;DHT22;3800;48.922;9.444;2023-05-07T11:56:17;22.30;99.90
7518;DHT22;3800;48.922;9.444;2023-05-07T11:58:45;22.20;99.90
7518;DHT22;3800;48.922;9.444;2023-05-07T12:01:13;22.20;99.90
7518;DHT22;3800;48.922;9.444;2023-05-07T12:03:42;22.20;99.90
7518;DHT22;3800;48.922;9.444;2023-05-07T12:06:10;22.10;99.90
7518;DHT22;3800;48.922;9.444;2023-05-07T12:08:38;22.10;99.90
7518;DHT22;3800;48.922;9.444;2023-05-07T12:11:07;22.10;99.90
7518;DHT22;3800;48.922;9.444;2023-05-07T12:13:36;22.10;99.90
7518;DHT22;3800;48.922;9.444;2023-05-07T12:16:05;22.10;99.90
7518;DHT22;3800;48.922;9.444;2023-05-07T12:18:34;22.10;99.90
7518;DHT22;3800;48.922;9.444;2023-05-07T12:21:02;22.10;99.90
7518;DHT22;3800;48.922;9.444;2023-05-07T12:23:30;22.10;99.90
7518;DHT22;3800;48.922;9.444;2023-05-07T12:25:59;22.10;99.90
7518;DHT22;3800;48.922;9.444;2023-05-07T12:28:26;22.10;99.90
7518;DHT22;3800;48.922;9.444;2023-05-07T12:30:55;22.00;99.90
7518;DHT22;3800;48.922;9.444;2023-05-07T12:33:24;22.00;99.90
7518;DHT22;3800;48.922;9.444;2023-05-07T12:35:53;22.00;99.90
7518;DHT22;3800;48.922;9.444;2023-05-07T12:38:21;21.90;99.90
7518;DHT22;3800;48.922;9.444;2023-05-07T12:40:50;21.90;99.90
7518;DHT22;3800;48.922;9.444;2023-05-07T12:43:20;21.80;99.90
7518;DHT22;3800;48.922;9.444;2023-05-07T12:45:48;21.80;99.90
7518;DHT22;3800;48.922;9.444;2023-05-07T12:48:17;21.80;99.90
7518;DHT22;3800;48.922;9.444;2023-05-07T12:50:48;21.70;99.90
7518;DHT22;3800;48.922;9.444;2023-05-07T12:53:17;21.60;99.90
7518;DHT22;3800;48.922;9.444;2023-05-07T12:55:45;21.40;99.90
7518;DHT22;3800;48.922;9.444;2023-05-07T12:58:16;21.20;99.90
7518;DHT22;3800;48.922;9.444;2023-05-07T13:00:44;21.20;99.90
7518;DHT22;3800;48.922;9.444;2023-05-07T13:03:16;21.00;99.90
7518;DHT22;3800;48.922;9.444;2023-05-07T13:05:40;20.90;99.90
7518;DHT22;3800;48.922;9.444;2023-05-07T13:08:08;20.80;99.90
7518;DHT22;3800;48.922;9.444;2023-05-07T13:10:37;20.70;99.90
7518;DHT22;3800;48.922;9.444;2023-05-07T13:13:06;20.50;99.90
7518;DHT22;3800;48.922;9.444;2023-05-07T13:15:34;20.50;99.90
7518;DHT22;3800;48.922;9.444;2023-05-07T13:18:02;20.40;99.90
7518;DHT22;3800;48.922;9.444;2023-05-07T13:20:31;20.40;99.90
7518;DHT22;3800;48.922;9.444;2023-05-07T13:22:59;20.30;99.90
7518;DHT22;3800;48.922;9.444;2023-05-07T13:25:27;20.20;99.90
7518;DHT22;3800;48.922;9.444;2023-05-07T13:27:56;20.20;99.90
7518;DHT22;3800;48.922;9.444;2023-05-07T13:30:26;20.00;99.90
7518;DHT22;3800;48.922;9.444;2023-05-07T13:32:55;20.00;99.90
7518;DHT22;3800;48.922;9.444;2023-05-07T13:35:22;20.00;99.90
7518;DHT22;3800;48.922;9.444;2023-05-07T13:37:51;19.90;99.90
7518;DHT22;3800;48.922;9.444;2023-05-07T13:40:19;19.90;99.90
7518;DHT22;3800;48.922;9.444;2023-05-07T13:42:47;19.80;99.90
7518;DHT22;3800;48.922;9.444;2023-05-07T13:45:16;19.80;99.90
7518;DHT22;3800;48.922;9.444;2023-05-07T13:47:45;19.80;99.90
7518;DHT22;3800;48.922;9.444;2023-05-07T13:50:12;19.70;99.90
7518;DHT22;3800;48.922;9.444;2023-05-07T13:52:42;19.60;99.90
7518;DHT22;3800;48.922;9.444;2023-05-07T13:55:09;19.50;99.90
7518;DHT22;3800;48.922;9.444;2023-05-07T13:57:38;19.40;99.90
7518;DHT22;3800;48.922;9.444;2023-05-07T14:00:07;19.20;99.90
7518;DHT22;3800;48.922;9.444;2023-05-07T14:02:35;19.00;99.90
7518;DHT22;3800;48.922;9.444;2023-05-07T14:05:04;18.50;99.90
7518;DHT22;3800;48.922;9.444;2023-05-07T14:07:33;18.50;99.90
7518;DHT22;3800;48.922;9.444;2023-05-07T14:10:01;18.40;99.90
7518;DHT22;3800;48.922;9.444;2023-05-07T14:12:29;18.20;99.90
7518;DHT22;3800;48.922;9.444;2023-05-07T14:14:57;18.00;99.90
7518;DHT22;3800;48.922;9.444;2023-05-07T14:17:26;17.90;99.90
7518;DHT22;3800;48.922;9.444;2023-05-07T14:19:54;17.80;99.90
7518;DHT22;3800;48.922;9.444;2023-05-07T14:22:23;17.80;99.90
7518;DHT22;3800;48.922;9.444;2023-05-07T14:24:51;17.70;99.90
7518;DHT22;3800;48.922;9.444;2023-05-07T14:27:20;17.40;99.90
7518;DHT22;3800;48.922;9.444;2023-05-07T14:29:49;17.40;99.90
7518;DHT22;3800;48.922;9.444;2023-05-07T14:32:17;17.30;99.90
7518;DHT22;3800;48.922;9.444;2023-05-07T14:34:45;17.20;99.90
7518;DHT22;3800;48.922;9.444;2023-05-07T14:37:13;17.20;99.90
7518;DHT22;3800;48.922;9.444;2023-05-07T14:39:42;17.20;99.90
7518;DHT22;3800;48.922;9.444;2023-05-07T14:42:10;17.10;99.90
7518;DHT22;3800;48.922;9.444;2023-05-07T14:44:39;16.90;99.90
7518;DHT22;3800;48.922;9.444;2023-05-07T14:47:07;16.80;99.90
7518;DHT22;3800;48.922;9.444;2023-05-07T14:49:35;16.70;99.90
7518;DHT22;3800;48.922;9.444;2023-05-07T14:52:04;16.60;99.90
7518;DHT22;3800;48.922;9.444;2023-05-07T14:54:34;16.50;99.90
7518;DHT22;3800;48.922;9.444;2023-05-07T14:57:04;16.50;99.90
7518;DHT22;3800;48.922;9.444;2023-05-07T14:59:31;16.40;99.90
7518;DHT22;3800;48.922;9.444;2023-05-07T15:01:59;16.30;99.90
7518;DHT22;3800;48.922;9.444;2023-05-07T15:04:28;16.20;99.90
7518;DHT22;3800;48.922;9.444;2023-05-07T15:06:56;16.20;99.90
7518;DHT22;3800;48.922;9.444;2023-05-07T15:09:24;16.10;99.90
7518;DHT22;3800;48.922;9.444;2023-05-07T15:11:52;16.10;99.90
7518;DHT22;3800;48.922;9.444;2023-05-07T15:14:21;16.20;99.90
7518;DHT22;3800;48.922;9.444;2023-05-07T15:16:49;16.20;99.90
7518;DHT22;3800;48.922;9.444;2023-05-07T15:19:18;16.10;99.90
7518;DHT22;3800;48.922;9.444;2023-05-07T15:21:46;16.10;99.90
7518;DHT22;3800;48.922;9.444;2023-05-07T15:24:14;16.10;99.90
7518;DHT22;3800;48.922;9.444;2023-05-07T15:26:43;16.10;99.90
7518;DHT22;3800;48.922;9.444;2023-05-07T15:29:11;16.10;99.90
7518;DHT22;3800;48.922;9.444;2023-05-07T15:31:39;16.10;99.90
7518;DHT22;3800;48.922;9.444;2023-05-07T15:34:07;16.10;99.90
7518;DHT22;3800;48.922;9.444;2023-05-07T15:36:36;16.10;99.90
7518;DHT22;3800;48.922;9.444;2023-05-07T15:39:05;16.20;99.90
7518;DHT22;3800;48.922;9.444;2023-05-07T15:41:33;16.20;99.90
7518;DHT22;3800;48.922;9.444;2023-05-07T15:44:02;16.30;99.90
7518;DHT22;3800;48.922;9.444;2023-05-07T15:46:31;16.20;99.90
7518;DHT22;3800;48.922;9.444;2023-05-07T15:48:59;16.30;99.90
7518;DHT22;3800;48.922;9.444;2023-05-07T15:51:27;16.30;99.90
7518;DHT22;3800;48.922;9.444;2023-05-07T15:53:55;16.30;99.90
7518;DHT22;3800;48.922;9.444;2023-05-07T15:56:24;16.40;99.90
7518;DHT22;3800;48.922;9.444;2023-05-07T15:58:53;16.30;99.90
7518;DHT22;3800;48.922;9.444;2023-05-07T16:01:21;16.30;99.90
7518;DHT22;3800;48.922;9.444;2023-05-07T16:03:49;16.40;99.90
7518;DHT22;3800;48.922;9.444;2023-05-07T16:06:18;16.30;99.90
7518;DHT22;3800;48.922;9.444;2023-05-07T16:08:46;16.30;99.90
7518;DHT22;3800;48.922;9.444;2023-05-07T16:11:14;16.30;99.90
7518;DHT22;3800;48.922;9.444;2023-05-07T16:13:42;16.30;99.90
7518;DHT22;3800;48.922;9.444;2023-05-07T16:16:11;16.20;99.90
7518;DHT22;3800;48.922;9.444;2023-05-07T16:18:39;16.20;99.90
7518;DHT22;3800;48.922;9.444;2023-05-07T16:21:07;16.20;99.90